Tjumen, Russia
Current Conditions -  °F | °C
As of 4:00 AM on Saturday 20 Dec 2014 (Local Time) from USTR Reporting Station
Clear Clear  
Wind Chill: 13°   Ceiling: Unl
Heat Index: 23°   Visibility: 6mi
Dew Point: 18°   Wind: 9mph
Humidity: 80%   Direction: 180°S
Pressure: 29.97"   Gusts: 16mph
Location:  57.15°N, 65.53°E
Report Text: USTR 192300Z 18004G07MPS CAVOK M05/M08 Q1015 NOSIG RMKQFE751/1002 21450160 30450350
Loading
Personal Weather Stations






























Interactive Weather Map New forecast layout! Learn more

10-Day Weather Forecast

Advertisements
Track Severe Weather on mobile